createdAt,value
2022-08-29T00:00:19.224Z,99481.26
2022-08-29T00:01:23.294Z,99482.83
2022-08-29T00:02:27.982Z,99479.47
2022-08-29T00:03:31.989Z,99487.81
2022-08-29T00:04:34.463Z,99493.09
2022-08-29T00:05:38.185Z,99488.38
2022-08-29T00:06:42.281Z,99488.41
2022-08-29T00:07:44.565Z,99491.66
2022-08-29T00:08:46.589Z,99492.92
2022-08-29T00:09:48.665Z,99483.20
2022-08-29T00:10:50.909Z,99489.89
2022-08-29T00:11:53.057Z,99485.43
2022-08-29T00:12:57.820Z,99486.28
2022-08-29T00:14:00.241Z,99488.48
2022-08-29T00:15:04.178Z,99481.27
2022-08-29T00:16:07.305Z,99484.61
2022-08-29T00:17:09.486Z,99486.84
2022-08-29T00:18:13.767Z,99486.14
2022-08-29T00:19:16.151Z,99484.20
2022-08-29T00:20:22.964Z,99487.66
2022-08-29T00:21:26.711Z,99485.98
2022-08-29T00:22:28.772Z,99495.16
2022-08-29T00:23:31.231Z,99490.43
2022-08-29T00:24:33.588Z,99489.87
2022-08-29T00:25:36.318Z,99487.89
2022-08-29T00:26:38.672Z,99482.84
2022-08-29T00:27:41.128Z,99484.21
2022-08-29T00:28:45.140Z,99483.08
2022-08-29T00:29:47.755Z,99478.62
2022-08-29T00:30:50.455Z,99484.75
2022-08-29T00:31:52.564Z,99479.90
2022-08-29T00:32:54.759Z,99478.94
2022-08-29T00:33:56.832Z,99486.16
2022-08-29T00:34:59.490Z,99484.23
2022-08-29T00:36:01.673Z,99487.89
2022-08-29T00:37:05.650Z,99483.48
2022-08-29T00:38:11.256Z,99482.52
2022-08-29T00:39:13.503Z,99479.73
2022-08-29T00:40:20.019Z,99478.20
2022-08-29T00:41:22.776Z,99496.13
2022-08-29T00:42:25.039Z,99494.47
2022-08-29T00:43:30.640Z,99494.47
2022-08-29T00:44:32.847Z,99486.28
2022-08-29T00:45:38.152Z,99489.08
2022-08-29T00:46:43.856Z,99477.39
2022-08-29T00:49:11.950Z,99477.65
2022-08-29T00:50:18.634Z,99477.09
2022-08-29T00:51:22.033Z,99479.33
2022-08-29T00:52:33.480Z,99477.09
2022-08-29T00:53:39.214Z,99472.08
2022-08-29T00:54:44.264Z,99473.88
2022-08-29T00:55:48.328Z,99480.34
2022-08-29T00:57:00.054Z,99473.11
2022-08-29T00:58:06.310Z,99462.55
2022-08-29T00:59:14.816Z,99470.05
2022-08-29T01:00:17.548Z,99466.70
2022-08-29T01:01:20.337Z,99458.08
2022-08-29T01:02:22.936Z,99457.00
2022-08-29T01:03:26.680Z,99459.75
2022-08-29T01:04:28.878Z,99458.37
2022-08-29T01:05:31.624Z,99461.17
2022-08-29T01:06:33.946Z,99459.19
2022-08-29T01:07:38.022Z,99458.53
2022-08-29T01:08:42.600Z,99453.93
2022-08-29T01:09:44.742Z,99466.16
2022-08-29T01:10:47.275Z,99459.20
2022-08-29T01:11:49.816Z,99459.50
2022-08-29T01:12:52.001Z,99460.20
2022-08-29T01:13:54.836Z,99454.47
2022-08-29T01:15:06.815Z,99460.04
2022-08-29T01:16:11.952Z,99464.73
2022-08-29T01:17:18.250Z,99460.02
2022-08-29T01:18:21.179Z,99453.80
2022-08-29T01:20:00.513Z,99457.26
2022-08-29T01:21:21.485Z,99464.20
2022-08-29T01:22:39.269Z,99452.23
2022-08-29T01:24:11.366Z,99452.67
2022-08-29T01:25:17.084Z,99455.56
2022-08-29T01:26:20.309Z,99452.89
2022-08-29T01:27:25.968Z,99446.66
2022-08-29T01:28:37.586Z,99453.86
2022-08-29T01:29:40.786Z,99450.66
2022-08-29T01:31:14.217Z,99450.22
2022-08-29T01:32:18.445Z,99451.50
2022-08-29T01:33:21.592Z,99453.03
2022-08-29T01:34:26.580Z,99449.27
2022-08-29T01:35:29.178Z,99447.05
2022-08-29T01:36:47.354Z,99456.64
2022-08-29T01:37:50.307Z,99452.33
2022-08-29T01:38:52.618Z,99455.25
2022-08-29T01:39:54.670Z,99457.42
2022-08-29T01:40:58.455Z,99453.58
2022-08-29T01:42:03.784Z,99452.33
2022-08-29T01:43:05.908Z,99456.64
2022-08-29T01:44:11.421Z,99444.95
2022-08-29T01:45:13.521Z,99442.84
2022-08-29T01:46:20.255Z,99442.67
2022-08-29T01:47:25.076Z,99443.16
2022-08-29T01:48:27.206Z,99445.01
2022-08-29T01:49:31.088Z,99439.52
2022-08-29T01:50:34.011Z,99437.70
2022-08-29T01:51:37.153Z,99436.39
2022-08-29T01:52:40.951Z,99444.13
2022-08-29T01:53:44.106Z,99440.20
2022-08-29T01:54:46.622Z,99434.36
2022-08-29T01:55:48.679Z,99442.65
2022-08-29T01:56:52.576Z,99437.71
2022-08-29T01:57:55.018Z,99438.59
2022-08-29T01:59:00.727Z,99438.06
2022-08-29T02:00:05.817Z,99443.03
2022-08-29T02:01:10.307Z,99445.78
2022-08-29T02:02:20.254Z,99438.73
2022-08-29T02:03:22.590Z,99435.23
2022-08-29T02:04:26.012Z,99440.78
2022-08-29T02:05:29.465Z,99445.78
2022-08-29T02:06:33.430Z,99444.30
2022-08-29T02:07:35.599Z,99447.45
2022-08-29T02:08:38.736Z,99438.53
2022-08-29T02:09:45.534Z,99443.86
2022-08-29T02:10:44.943Z,99447.06
2022-08-29T02:11:47.093Z,99445.78
2022-08-29T02:12:49.236Z,99448.30
2022-08-29T02:13:57.418Z,99452.34
2022-08-29T02:15:00.250Z,99448.39
2022-08-29T02:16:03.302Z,99447.33
2022-08-29T02:17:06.882Z,99451.45
2022-08-29T02:18:09.132Z,99445.47
2022-08-29T02:19:11.735Z,99451.32
2022-08-29T02:20:15.598Z,99447.04
2022-08-29T02:21:20.789Z,99444.52
2022-08-29T02:22:22.999Z,99449.25
2022-08-29T02:23:30.808Z,99451.50
2022-08-29T02:24:30.609Z,99450.55
2022-08-29T02:25:32.590Z,99450.93
2022-08-29T02:26:36.451Z,99448.39
2022-08-29T02:27:39.067Z,99450.06
2022-08-29T02:28:41.226Z,99448.88
2022-08-29T02:29:43.426Z,99447.20
2022-08-29T02:30:48.754Z,99440.98
2022-08-29T02:31:53.185Z,99447.20
2022-08-29T02:32:55.488Z,99453.69
2022-08-29T02:33:57.543Z,99451.33
2022-08-29T02:34:59.730Z,99451.05
2022-08-29T02:36:04.165Z,99452.48
2022-08-29T02:37:06.884Z,99452.48
2022-08-29T02:38:10.896Z,99452.72
2022-08-29T02:39:13.072Z,99453.82
2022-08-29T02:40:15.983Z,99455.88
2022-08-29T02:41:18.306Z,99456.84
2022-08-29T02:42:20.544Z,99455.77
2022-08-29T02:43:22.991Z,99452.86
2022-08-29T02:44:25.046Z,99456.59
2022-08-29T02:45:27.683Z,99458.27
2022-08-29T02:46:30.633Z,99461.87
2022-08-29T02:47:33.632Z,99450.50
2022-08-29T02:48:35.789Z,99450.50
2022-08-29T02:49:37.853Z,99463.54
2022-08-29T02:50:48.375Z,99463.27
2022-08-29T02:51:50.590Z,99467.58
2022-08-29T02:52:53.150Z,99469.25
2022-08-29T02:53:55.909Z,99471.31
2022-08-29T02:54:57.929Z,99467.44
2022-08-29T02:56:00.008Z,99465.22
2022-08-29T02:57:02.255Z,99463.78
2022-08-29T02:58:05.295Z,99466.42
2022-08-29T02:59:08.029Z,99465.73
2022-08-29T03:00:18.088Z,99469.33
2022-08-29T03:01:22.339Z,99472.07
2022-08-29T03:02:24.914Z,99470.73
2022-08-29T03:03:26.963Z,99472.12
2022-08-29T03:04:29.128Z,99464.94
2022-08-29T03:05:33.144Z,99465.22
2022-08-29T03:06:35.366Z,99465.22
2022-08-29T03:07:38.113Z,99472.98
2022-08-29T03:08:40.167Z,99475.48
2022-08-29T03:09:42.232Z,99472.98
2022-08-29T03:10:44.747Z,99475.81
2022-08-29T03:11:46.906Z,99468.23
2022-08-29T03:12:50.492Z,99479.06
2022-08-29T03:13:52.626Z,99471.15
2022-08-29T03:14:56.637Z,99470.88
2022-08-29T03:15:59.235Z,99474.14
2022-08-29T03:17:01.558Z,99468.02
2022-08-29T03:18:04.247Z,99468.02
2022-08-29T03:19:06.300Z,99472.92
2022-08-29T03:20:10.964Z,99472.92
2022-08-29T03:21:15.887Z,99475.42
2022-08-29T03:22:18.548Z,99475.76
2022-08-29T03:23:21.090Z,99483.83
2022-08-29T03:24:27.017Z,99479.66
2022-08-29T03:25:27.664Z,99477.73
2022-08-29T03:26:29.918Z,99481.80
2022-08-29T03:27:33.425Z,99477.16
2022-08-29T03:28:35.537Z,99477.40
2022-08-29T03:29:37.623Z,99473.23
2022-08-29T03:30:40.304Z,99474.66
2022-08-29T03:31:42.565Z,99480.51
2022-08-29T03:32:44.866Z,99475.48
2022-08-29T03:33:47.209Z,99476.44
2022-08-29T03:34:49.211Z,99474.96
2022-08-29T03:35:51.163Z,99482.52
2022-08-29T03:36:54.201Z,99475.89
2022-08-29T03:37:57.125Z,99482.84
2022-08-29T03:38:59.236Z,99480.20
2022-08-29T03:40:03.084Z,99481.41
2022-08-29T03:41:07.008Z,99474.75
2022-08-29T03:42:09.512Z,99484.44
2022-08-29T03:43:11.544Z,99486.83
2022-08-29T03:44:14.010Z,99485.50
2022-08-29T03:45:18.934Z,99483.61
2022-08-29T03:46:22.086Z,99488.36
2022-08-29T03:47:24.617Z,99490.56
2022-08-29T03:48:27.232Z,99482.52
2022-08-29T03:49:29.786Z,99492.81
2022-08-29T03:50:32.472Z,99486.16
2022-08-29T03:51:35.439Z,99487.02
2022-08-29T03:52:37.563Z,99489.77
2022-08-29T03:53:41.740Z,99498.91
2022-08-29T03:54:43.700Z,99488.03
2022-08-29T03:55:45.840Z,99485.29
2022-08-29T03:56:48.689Z,99490.56
2022-08-29T03:57:51.154Z,99491.05
2022-08-29T03:58:54.452Z,99487.17
2022-08-29T03:59:56.531Z,99497.14
2022-08-29T04:00:59.211Z,99490.77
2022-08-29T04:02:01.934Z,99489.70
2022-08-29T04:03:04.270Z,99496.43
2022-08-29T04:04:06.393Z,99499.06
2022-08-29T04:05:09.610Z,99493.48
2022-08-29T04:06:12.287Z,99491.88
2022-08-29T04:07:15.273Z,99494.89
2022-08-29T04:08:17.426Z,99498.00
2022-08-29T04:09:19.959Z,99501.26
2022-08-29T04:10:26.133Z,99497.26
2022-08-29T04:11:28.418Z,99504.10
2022-08-29T04:12:30.478Z,99499.52
2022-08-29T04:13:32.419Z,99494.77
2022-08-29T04:14:34.941Z,99498.36
2022-08-29T04:15:39.993Z,99498.11
2022-08-29T04:16:45.827Z,99496.06
2022-08-29T04:17:51.075Z,99495.34
2022-08-29T04:18:54.556Z,99494.01
2022-08-29T04:19:56.729Z,99496.84
2022-08-29T04:21:01.540Z,99499.92
2022-08-29T04:22:05.058Z,99496.66
2022-08-29T04:23:07.860Z,99502.39
2022-08-29T04:24:09.944Z,99502.26
2022-08-29T04:25:13.478Z,99499.63
2022-08-29T04:27:22.939Z,99501.41
2022-08-29T04:28:25.482Z,99502.26
2022-08-29T04:29:27.652Z,99501.98
2022-08-29T04:30:30.090Z,99502.17
2022-08-29T04:31:32.460Z,99503.41
2022-08-29T04:32:34.714Z,99493.30
2022-08-29T04:33:37.270Z,99503.27
2022-08-29T04:34:39.133Z,99506.48
2022-08-29T04:35:41.039Z,99511.42
2022-08-29T04:36:44.406Z,99504.56
2022-08-29T04:37:47.225Z,99507.72
2022-08-29T04:38:49.339Z,99499.67
2022-08-29T04:39:52.462Z,99510.80
2022-08-29T04:40:54.658Z,99504.80
2022-08-29T04:41:56.699Z,99508.16
2022-08-29T04:42:58.766Z,99512.58
2022-08-29T04:44:01.126Z,99505.52
2022-08-29T04:45:05.185Z,99508.16
2022-08-29T04:46:07.877Z,99503.46
2022-08-29T04:47:11.819Z,99509.30
2022-08-29T04:48:14.475Z,99510.45
2022-08-29T04:49:16.582Z,99505.18
2022-08-29T04:50:22.696Z,99508.64
2022-08-29T04:51:26.214Z,99513.66
2022-08-29T04:52:28.351Z,99520.47
2022-08-29T04:53:30.426Z,99513.28
2022-08-29T04:54:32.395Z,99509.97
2022-08-29T04:55:34.960Z,99502.19
2022-08-29T04:56:43.643Z,99512.03
2022-08-29T04:57:43.491Z,99511.06
2022-08-29T04:58:46.351Z,99510.22
2022-08-29T04:59:57.581Z,99511.31
2022-08-29T05:01:00.787Z,99507.47
2022-08-29T05:02:02.864Z,99505.97
2022-08-29T05:03:04.975Z,99513.06
2022-08-29T05:04:10.213Z,99507.11
2022-08-29T05:05:14.175Z,99507.39
2022-08-29T05:06:22.501Z,99516.98
2022-08-29T05:07:26.055Z,99512.92
2022-08-29T05:08:29.558Z,99518.52
2022-08-29T05:09:32.730Z,99513.66
2022-08-29T05:10:37.272Z,99519.91
2022-08-29T05:11:39.533Z,99513.95
2022-08-29T05:12:42.743Z,99520.91
2022-08-29T05:13:46.143Z,99515.34
2022-08-29T05:14:48.237Z,99512.84
2022-08-29T05:15:50.988Z,99519.40
2022-08-29T05:16:53.238Z,99511.48
2022-08-29T05:17:55.235Z,99509.52
2022-08-29T05:18:59.444Z,99513.41
2022-08-29T05:20:03.809Z,99516.76
2022-08-29T05:21:06.318Z,99520.08
2022-08-29T05:22:09.449Z,99520.08
2022-08-29T05:23:13.042Z,99511.19
2022-08-29T05:24:16.835Z,99514.55
2022-08-29T05:25:18.966Z,99512.09
2022-08-29T05:26:21.880Z,99518.20
2022-08-29T05:27:25.025Z,99513.48
2022-08-29T05:28:28.398Z,99508.46
2022-08-29T05:29:30.543Z,99501.25
2022-08-29T05:30:35.093Z,99509.59
2022-08-29T05:31:39.406Z,99511.41
2022-08-29T05:32:41.856Z,99505.84
2022-08-29T05:33:44.003Z,99511.97
2022-08-29T05:34:47.969Z,99502.79
2022-08-29T05:35:50.138Z,99505.73
2022-08-29T05:36:52.704Z,99509.61
2022-08-29T05:37:54.760Z,99507.67
2022-08-29T05:38:57.220Z,99501.02
2022-08-29T05:39:59.209Z,99507.13
2022-08-29T05:41:01.685Z,99508.53
2022-08-29T05:42:06.620Z,99501.28
2022-08-29T05:43:09.728Z,99508.24
2022-08-29T05:44:12.448Z,99509.77
2022-08-29T05:45:14.605Z,99506.01
2022-08-29T05:46:20.209Z,99509.50
2022-08-29T05:47:22.726Z,99509.09
2022-08-29T05:48:24.837Z,99502.84
2022-08-29T05:49:27.157Z,99514.78
2022-08-29T05:50:30.926Z,99507.27
2022-08-29T05:51:39.356Z,99511.31
2022-08-29T05:52:38.614Z,99506.44
2022-08-29T05:53:40.687Z,99506.44
2022-08-29T05:54:43.942Z,99503.23
2022-08-29T05:55:46.012Z,99509.09
2022-08-29T05:56:49.786Z,99509.09
2022-08-29T05:57:53.561Z,99510.63
2022-08-29T05:58:56.006Z,99508.80
2022-08-29T05:59:58.046Z,99511.59
2022-08-29T06:01:00.285Z,99513.81
2022-08-29T06:02:07.422Z,99515.34
2022-08-29T06:03:12.736Z,99508.81
2022-08-29T06:04:15.245Z,99509.36
2022-08-29T06:05:18.697Z,99511.86
2022-08-29T06:06:23.415Z,99507.12
2022-08-29T06:07:26.189Z,99505.45
2022-08-29T06:08:28.248Z,99516.02
2022-08-29T06:09:30.502Z,99512.11
2022-08-29T06:10:33.043Z,99511.83
2022-08-29T06:11:35.744Z,99511.83
2022-08-29T06:12:38.238Z,99515.72
2022-08-29T06:13:40.301Z,99508.46
2022-08-29T06:14:42.534Z,99508.46
2022-08-29T06:15:47.016Z,99512.50
2022-08-29T06:16:50.436Z,99516.13
2022-08-29T06:17:52.524Z,99515.15
2022-08-29T06:18:56.519Z,99516.82
2022-08-29T06:19:58.499Z,99507.77
2022-08-29T06:21:04.816Z,99509.48
2022-08-29T06:22:10.177Z,99511.10
2022-08-29T06:23:13.535Z,99511.22
2022-08-29T06:24:17.534Z,99512.62
2022-08-29T06:25:38.444Z,99517.47
2022-08-29T06:26:24.369Z,99513.95
2022-08-29T06:27:26.426Z,99514.01
2022-08-29T06:28:31.450Z,99513.95
2022-08-29T06:29:38.454Z,99514.34
2022-08-29T06:30:39.023Z,99513.52
2022-08-29T06:31:41.138Z,99516.16
2022-08-29T06:32:43.202Z,99514.05
2022-08-29T06:33:45.253Z,99512.77
2022-08-29T06:34:47.303Z,99516.48
2022-08-29T06:35:49.806Z,99511.44
2022-08-29T06:36:52.207Z,99518.91
2022-08-29T06:37:54.271Z,99519.08
2022-08-29T06:38:58.617Z,99518.54
2022-08-29T06:40:00.679Z,99518.38
2022-08-29T06:41:09.239Z,99517.28
2022-08-29T06:42:11.826Z,99522.42
2022-08-29T06:43:15.515Z,99518.63
2022-08-29T06:44:17.583Z,99522.58
2022-08-29T06:45:19.632Z,99516.73
2022-08-29T06:46:32.516Z,99513.94
2022-08-29T06:47:34.735Z,99520.91
2022-08-29T06:48:37.874Z,99517.94
2022-08-29T06:49:42.984Z,99515.38
2022-08-29T06:50:45.746Z,99520.61
2022-08-29T06:51:54.286Z,99520.69
2022-08-29T06:52:55.758Z,99523.18
2022-08-29T06:54:00.857Z,99532.34
2022-08-29T06:55:03.925Z,99520.77
2022-08-29T06:56:11.577Z,99517.05
2022-08-29T06:57:12.743Z,99517.05
2022-08-29T06:58:15.384Z,99527.73
2022-08-29T06:59:19.722Z,99527.82
2022-08-29T07:00:22.911Z,99538.50
2022-08-29T07:01:25.399Z,99533.73
2022-08-29T07:02:28.076Z,99527.98
2022-08-29T07:03:30.174Z,99528.06
2022-08-29T07:04:32.218Z,99529.12
2022-08-29T07:05:34.727Z,99525.85
2022-08-29T07:06:37.329Z,99527.59
2022-08-29T07:07:39.491Z,99529.98
2022-08-29T07:08:53.261Z,99523.37
2022-08-29T07:09:46.479Z,99529.42
2022-08-29T07:10:48.816Z,99529.42
2022-08-29T07:11:50.853Z,99526.77
2022-08-29T07:12:53.331Z,99526.44
2022-08-29T07:13:58.174Z,99528.20
2022-08-29T07:15:00.801Z,99531.75
2022-08-29T07:16:05.101Z,99532.27
2022-08-29T07:17:08.021Z,99514.55
2022-08-29T07:18:10.156Z,99526.36
2022-08-29T07:19:12.097Z,99523.41
2022-08-29T07:20:16.764Z,99526.58
2022-08-29T07:21:22.547Z,99523.30
2022-08-29T07:22:24.685Z,99525.95
2022-08-29T07:23:26.663Z,99524.80
2022-08-29T07:24:30.144Z,99526.00
2022-08-29T07:25:33.126Z,99524.38
2022-08-29T07:26:41.863Z,99531.02
2022-08-29T07:27:53.376Z,99528.71
2022-08-29T07:28:56.580Z,99533.41
2022-08-29T07:29:59.788Z,99530.77
2022-08-29T07:31:04.348Z,99531.28
2022-08-29T07:32:08.417Z,99534.31
2022-08-29T07:33:13.436Z,99532.81
2022-08-29T07:34:20.436Z,99535.50
2022-08-29T07:35:30.098Z,99529.91
2022-08-29T07:36:26.021Z,99527.08
2022-08-29T07:37:27.989Z,99534.57
2022-08-29T07:38:32.167Z,99532.25
2022-08-29T07:39:36.637Z,99542.23
2022-08-29T07:40:38.880Z,99536.60
2022-08-29T07:41:44.055Z,99530.27
2022-08-29T07:42:46.743Z,99527.47
2022-08-29T07:43:49.165Z,99532.61
2022-08-29T07:44:51.237Z,99532.12
2022-08-29T07:45:53.510Z,99531.78
2022-08-29T07:46:58.935Z,99538.59
2022-08-29T07:48:02.695Z,99537.63
2022-08-29T07:49:07.738Z,99534.97
2022-08-29T07:50:13.262Z,99534.81
2022-08-29T07:51:18.479Z,99530.17
2022-08-29T07:52:25.944Z,99524.36
2022-08-29T07:53:28.047Z,99528.68
2022-08-29T07:54:30.400Z,99527.83
2022-08-29T07:55:32.966Z,99536.63
2022-08-29T07:56:40.781Z,99525.98
2022-08-29T07:57:43.050Z,99522.69
2022-08-29T07:58:45.936Z,99528.68
2022-08-29T07:59:48.433Z,99529.18
2022-08-29T08:00:51.172Z,99521.20
2022-08-29T08:01:55.079Z,99520.37
2022-08-29T08:02:57.266Z,99527.02
2022-08-29T08:03:59.605Z,99517.36
2022-08-29T08:05:01.658Z,99518.67
2022-08-29T08:06:07.261Z,99528.49
2022-08-29T08:07:13.600Z,99520.16
2022-08-29T08:08:15.211Z,99521.19
2022-08-29T08:09:17.032Z,99519.52
2022-08-29T08:10:20.055Z,99531.97
2022-08-29T08:11:24.016Z,99524.66
2022-08-29T08:12:26.131Z,99519.16
2022-08-29T08:13:28.210Z,99523.30
2022-08-29T08:14:35.070Z,99520.61
2022-08-29T08:15:36.122Z,99520.44
2022-08-29T08:16:38.333Z,99523.44
2022-08-29T08:17:44.204Z,99535.24
2022-08-29T08:18:48.914Z,99528.89
2022-08-29T08:19:54.108Z,99528.89
2022-08-29T08:20:56.445Z,99533.88
2022-08-29T08:21:59.602Z,99523.90
2022-08-29T08:23:01.698Z,99532.55
2022-08-29T08:24:04.436Z,99525.59
2022-08-29T08:25:07.800Z,99524.40
2022-08-29T08:26:12.108Z,99523.58
2022-08-29T08:27:14.743Z,99523.77
2022-08-29T08:28:16.977Z,99520.57
2022-08-29T08:29:19.672Z,99530.09
2022-08-29T08:30:23.147Z,99524.05
2022-08-29T08:31:27.370Z,99525.17
2022-08-29T08:32:32.369Z,99527.84
2022-08-29T08:33:37.390Z,99520.30
2022-08-29T08:34:39.612Z,99522.08
2022-08-29T08:35:42.197Z,99511.20
2022-08-29T08:36:45.009Z,99526.52
2022-08-29T08:37:47.071Z,99518.82
2022-08-29T08:38:51.280Z,99526.34
2022-08-29T08:39:57.120Z,99518.82
2022-08-29T08:41:27.066Z,99516.30
2022-08-29T08:42:42.776Z,99525.01
2022-08-29T08:43:57.454Z,99535.63
2022-08-29T08:45:15.351Z,99533.56
2022-08-29T08:46:28.680Z,99526.68
2022-08-29T08:47:40.504Z,99536.87
2022-08-29T08:48:44.717Z,99534.81
2022-08-29T08:49:50.396Z,99540.48
2022-08-29T08:51:08.426Z,99531.53
2022-08-29T08:52:14.089Z,99531.83
2022-08-29T08:53:19.745Z,99534.14
2022-08-29T08:54:25.395Z,99539.77
2022-08-29T08:55:50.116Z,99537.81
2022-08-29T08:57:01.376Z,99533.09
2022-08-29T08:58:05.165Z,99538.91
2022-08-29T08:59:13.816Z,99543.75
2022-08-29T09:00:16.729Z,99554.43
2022-08-29T09:01:22.713Z,99537.48
2022-08-29T09:02:46.623Z,99556.44
2022-08-29T09:04:05.623Z,99541.72
2022-08-29T09:05:30.379Z,99547.67
2022-08-29T09:06:39.813Z,99534.27
2022-08-29T09:08:03.545Z,99536.02
2022-08-29T09:09:44.943Z,99536.84
2022-08-29T09:11:02.359Z,99537.47
2022-08-29T09:12:20.783Z,99538.75
2022-08-29T09:15:03.089Z,99542.94
2022-08-29T09:16:09.541Z,99552.75
2022-08-29T09:17:18.370Z,99534.73
2022-08-29T09:18:24.250Z,99546.69
2022-08-29T09:19:27.110Z,99542.08
2022-08-29T09:20:32.520Z,99543.02
2022-08-29T09:21:42.062Z,99539.06
2022-08-29T09:22:45.746Z,99533.67
2022-08-29T09:23:51.474Z,99545.94
2022-08-29T09:25:03.175Z,99548.23
2022-08-29T09:26:06.236Z,99547.89
2022-08-29T09:27:30.974Z,99546.22
2022-08-29T09:28:33.804Z,99552.23
2022-08-29T09:29:36.617Z,99546.69
2022-08-29T09:30:41.684Z,99566.56
2022-08-29T09:31:43.887Z,99566.56
2022-08-29T09:33:01.920Z,99553.34
2022-08-29T09:34:12.259Z,99545.23
2022-08-29T09:35:27.331Z,99544.30
2022-08-29T09:36:47.913Z,99540.62
2022-08-29T09:38:19.258Z,99550.22
2022-08-29T09:39:31.552Z,99553.55
2022-08-29T09:41:02.690Z,99556.11
2022-08-29T09:42:14.412Z,99555.02
2022-08-29T09:43:27.101Z,99542.48
2022-08-29T09:44:34.777Z,99538.45
2022-08-29T09:45:36.899Z,99531.99
2022-08-29T09:46:41.406Z,99532.26
2022-08-29T09:47:44.079Z,99521.87
2022-08-29T09:48:55.778Z,99546.22
2022-08-29T09:50:13.683Z,99532.86
2022-08-29T09:51:28.688Z,99543.24
2022-08-29T09:52:31.505Z,99527.84
2022-08-29T09:53:33.629Z,99528.52
2022-08-29T09:54:35.793Z,99531.84
2022-08-29T09:55:42.519Z,99536.80
2022-08-29T09:57:06.497Z,99530.09
2022-08-29T09:58:11.686Z,99532.02
2022-08-29T09:59:32.116Z,99531.92
2022-08-29T10:00:40.230Z,99524.27
2022-08-29T10:01:42.516Z,99528.95
2022-08-29T10:02:50.347Z,99527.00
2022-08-29T10:03:58.273Z,99526.09
2022-08-29T10:05:05.595Z,99523.72
2022-08-29T10:06:16.113Z,99537.59
2022-08-29T10:07:24.949Z,99536.39
2022-08-29T10:08:30.623Z,99523.31
2022-08-29T10:09:32.767Z,99522.56
2022-08-29T10:10:36.794Z,99539.05
2022-08-29T10:11:50.882Z,99514.43
2022-08-29T10:13:12.569Z,99528.36
2022-08-29T10:14:18.751Z,99524.73
2022-08-29T10:15:49.541Z,99523.63
2022-08-29T10:16:47.295Z,99524.64
2022-08-29T10:18:05.247Z,99521.97
2022-08-29T10:19:13.343Z,99520.31
2022-08-29T10:20:16.898Z,99519.95
2022-08-29T10:21:28.336Z,99527.59
2022-08-29T10:22:49.226Z,99522.34
2022-08-29T10:24:00.719Z,99524.08
2022-08-29T10:25:06.470Z,99521.33
2022-08-29T10:26:13.504Z,99517.20
2022-08-29T10:27:28.361Z,99526.56
2022-08-29T10:28:52.581Z,99526.04
2022-08-29T10:29:58.335Z,99520.32
2022-08-29T10:31:13.160Z,99534.14
2022-08-29T10:32:42.686Z,99519.80
2022-08-29T10:34:00.508Z,99519.92
2022-08-29T10:35:19.351Z,99522.99
2022-08-29T10:36:34.802Z,99521.13
2022-08-29T10:38:11.585Z,99521.37
2022-08-29T10:39:26.263Z,99524.38
2022-08-29T10:40:43.430Z,99522.46
2022-08-29T10:41:50.645Z,99518.77
2022-08-29T10:42:59.134Z,99509.17
2022-08-29T10:44:23.924Z,99528.14
2022-08-29T10:45:35.708Z,99524.12
2022-08-29T10:47:04.165Z,99548.41
2022-08-29T10:48:12.819Z,99530.02
2022-08-29T10:49:30.836Z,99524.70
2022-08-29T10:50:44.533Z,99519.20
2022-08-29T10:51:50.660Z,99512.63
2022-08-29T10:53:03.385Z,99510.59
2022-08-29T10:54:15.339Z,99509.16
2022-08-29T10:55:46.421Z,99517.07
2022-08-29T10:56:51.378Z,99513.81
2022-08-29T10:58:14.231Z,99505.92
2022-08-29T10:59:50.717Z,99509.66
2022-08-29T11:00:56.580Z,99509.88
2022-08-29T11:03:18.667Z,99502.02
2022-08-29T11:04:31.145Z,99502.73
2022-08-29T11:05:36.782Z,99511.88
2022-08-29T11:06:42.645Z,99516.20
2022-08-29T11:09:12.316Z,99504.47
2022-08-29T11:10:19.578Z,99512.00
2022-08-29T11:11:25.802Z,99521.77
2022-08-29T11:12:40.018Z,99513.53
2022-08-29T11:13:46.568Z,99507.75
2022-08-29T11:16:23.065Z,99524.52
2022-08-29T11:17:29.126Z,99529.19
2022-08-29T11:18:43.847Z,99504.05
2022-08-29T11:20:04.834Z,99508.19
2022-08-29T11:21:16.466Z,99508.09
2022-08-29T11:22:29.952Z,99505.08
2022-08-29T11:23:47.396Z,99521.47
2022-08-29T11:24:58.811Z,99512.84
2022-08-29T11:26:04.468Z,99507.02
2022-08-29T11:27:25.266Z,99507.02
2022-08-29T11:28:48.853Z,99512.38
2022-08-29T11:29:55.972Z,99513.69
2022-08-29T11:31:13.577Z,99513.80
2022-08-29T11:32:28.296Z,99502.67
2022-08-29T11:33:39.914Z,99508.64
2022-08-29T11:34:54.487Z,99508.66
2022-08-29T11:36:35.482Z,99509.74
2022-08-29T11:37:49.013Z,99516.56
2022-08-29T11:38:57.380Z,99523.34
2022-08-29T11:41:38.281Z,99515.50
2022-08-29T11:42:51.849Z,99516.95
2022-08-29T11:43:51.460Z,99513.84
2022-08-29T11:44:57.043Z,99516.52
2022-08-29T11:46:03.201Z,99505.59
2022-08-29T11:47:31.716Z,99511.37
2022-08-29T11:48:41.241Z,99517.14
2022-08-29T11:49:47.324Z,99513.42
2022-08-29T11:50:50.289Z,99499.00
2022-08-29T11:51:56.296Z,99496.72
2022-08-29T11:53:11.782Z,99506.23
2022-08-29T11:54:30.239Z,99525.41
2022-08-29T11:55:41.392Z,99526.86
2022-08-29T11:56:45.991Z,99512.63
2022-08-29T11:57:51.395Z,99510.51
2022-08-29T11:58:56.567Z,99504.74
2022-08-29T12:00:00.191Z,99519.61
2022-08-29T12:01:02.638Z,99510.77
2022-08-29T12:02:08.133Z,99507.05
2022-08-29T12:03:35.482Z,99509.77
2022-08-29T12:04:56.678Z,99507.90
2022-08-29T12:06:19.697Z,99506.20
2022-08-29T12:07:25.349Z,99501.19
2022-08-29T12:08:37.170Z,99498.98
2022-08-29T12:09:44.430Z,99504.95
2022-08-29T12:10:54.302Z,99511.41
2022-08-29T12:12:06.022Z,99507.25
2022-08-29T12:13:08.185Z,99505.16
2022-08-29T12:14:14.918Z,99510.12
2022-08-29T12:15:35.903Z,99505.62
2022-08-29T12:16:51.377Z,99507.48
2022-08-29T12:18:02.421Z,99508.11
2022-08-29T12:19:04.470Z,99505.17
2022-08-29T12:20:10.694Z,99512.18
2022-08-29T12:21:40.960Z,99501.44
2022-08-29T12:23:05.926Z,99501.05
2022-08-29T12:24:26.837Z,99500.46
2022-08-29T12:26:59.740Z,99500.06
2022-08-29T12:28:06.505Z,99498.80
2022-08-29T12:29:31.066Z,99491.55
2022-08-29T12:30:42.638Z,99500.22
2022-08-29T12:32:22.477Z,99502.28
2022-08-29T12:33:43.713Z,99499.23
2022-08-29T12:35:14.036Z,99489.53
2022-08-29T12:36:31.879Z,99493.61
2022-08-29T12:37:57.254Z,99487.38
2022-08-29T12:39:19.856Z,99496.77
2022-08-29T12:40:29.535Z,99499.74
2022-08-29T12:41:45.011Z,99497.24
2022-08-29T12:42:57.174Z,99488.02
2022-08-29T12:44:04.021Z,99494.64
2022-08-29T12:45:13.985Z,99499.84
2022-08-29T12:46:24.238Z,99489.53
2022-08-29T12:47:29.914Z,99493.02
2022-08-29T12:48:36.064Z,99492.00
2022-08-29T12:49:48.322Z,99498.59
2022-08-29T12:50:51.791Z,99496.92
2022-08-29T12:51:57.288Z,99492.58
2022-08-29T12:53:02.944Z,99486.14
2022-08-29T12:54:06.559Z,99486.94
2022-08-29T12:55:28.957Z,99493.88
2022-08-29T12:56:33.637Z,99483.10
2022-08-29T12:57:37.069Z,99485.97
2022-08-29T12:58:42.480Z,99485.98
2022-08-29T12:59:51.516Z,99483.22
2022-08-29T13:00:54.020Z,99477.91
2022-08-29T13:01:59.574Z,99477.84
2022-08-29T13:03:15.175Z,99476.63
2022-08-29T13:04:18.287Z,99483.52
2022-08-29T13:05:28.399Z,99484.47
2022-08-29T13:06:29.581Z,99494.84
2022-08-29T13:07:31.754Z,99482.05
2022-08-29T13:08:35.850Z,99494.63
2022-08-29T13:09:41.564Z,99479.91